International Virtual Aviation Organisation

Russian Federation and Kazakhstan MCD

 
UATE 300100Z 07008MPS CAVOK M01/M06 Q1032 R12/0///70 NOSIG RMK QFE772/1030
QNH:(hPa/inHg/mmHg)1032 / 30.47 / 774
QFE:(hPa/inHg/mmHg)1029 / 30.39 / 772
Temperature-1
Dew Point-6
Visibility> 10000
WeatherCAVOK
Cloud Cover
Transition Height2050 m./6900 ft.
Transition LevelFL80
SQUAWK